ADDS TAF Board (Experimental) INFO Settings
IDs: Format: Expanded Condensed

KSTL - St Louis/Lambert Int, MO, US

Issued at 0530 UTC 08 Jul 2015
Updated at: 0633 UTC 08 Jul 2015
Time0551Z 08/07Z 08/08Z 08/09Z 08/10Z 08/11Z 08/12Z 08/13Z 08/14Z 08/15Z 08/16Z 08/17Z 08/18Z 08/19Z
Type OBS PRVL
  [TEMP]  
PRVL
  [TEMP]  
PRVL
  [TEMP]  
PRVL PRVL PRVL PRVL PRVL PRVL PRVL PRVL PRVL PRVL
VIS 7 5
  [2]  
5
  [2]  
5
  [2]  
5 5 5 5 5 5 3 3 3 3
CIG 36 25
  [15]  
25
  [15]  
25
  [15]  
25 25 15 15 15 15 15 15 15 15
Cover OVC OVC
  [BKN]  
OVC
  [BKN]  
OVC
  [BKN]  
OVC OVC OVC OVC OVC OVC OVC OVC OVC OVC
FltCat VFR MVFR
  [IFR]  
MVFR
  [IFR]  
MVFR
  [IFR]  
MVFR MVFR MVFR MVFR MVFR MVFR MVFR MVFR MVFR MVFR
WX -RA -RA BR
  [-RA BR]  
-RA BR
  [-RA BR]  
-RA BR
  [-RA BR]  
-RA BR -RA BR -SHRA BR -SHRA BR -SHRA BR -SHRA BR -SHRA BR VCTS -SHRA BR VCTS -SHRA BR VCTS -SHRA BR VCTS
WDir 100 VRB
[VRB]
VRB
[VRB]
VRB
[VRB]
VRB VRB 90 90 90 90 90 90 90 90
WSpd 6 3
  [3]  
3
  [3]  
3
  [3]  
3 3 6 6 6 6 14 14 14 14
WGst -- --
  [--]  
--
  [--]  
--
  [--]  
-- -- -- -- -- -- -- -- -- --
R06/24
XWnd -4 3 3 3 VRB VRB -3 -3 -3 -3 -6 -6 -6 -6
XGst -- 0 0 0 -- -- -- -- -- -- -- -- -- --
HWnd 5 1 1 1 VRB VRB 5 5 5 5 12 12 12 12
HGst -- 0 0 0 -- -- -- -- -- -- -- -- -- --
R11/29
XWnd 2 3 3 3 VRB VRB 3 3 3 3 7 7 7 7
XGst -- 0 0 0 -- -- -- -- -- -- -- -- -- --
HWnd 6 -2 -2 -2 VRB VRB 5 5 5 5 12 12 12 12
HGst -- 0 0 0 -- -- -- -- -- -- -- -- -- --
R12/30
XWnd 2 3 3 3 VRB VRB 3 3 3 3 7 7 7 7
XGst -- 0 0 0 -- -- -- -- -- -- -- -- -- --
HWnd 6 -2 -2 -2 VRB VRB 5 5 5 5 12 12 12 12
HGst -- 0 0 0 -- -- -- -- -- -- -- -- -- --

NOTE: TEMPO conditions in [brackets]. Keep in mind TEMPO conditions might be better (lower impact) than prevailing conditions.

Raw TAF
KSTL 080530Z 0806/0912 VRB03KT 5SM -RA BR SCT015 OVC025
  TEMPO 0806/0810 2SM -RA BR SCT007 BKN015
  FM081200 09006KT 5SM -SHRA BR SCT009 OVC015
  FM081600 09014KT 3SM -SHRA BR VCTS SCT005CB OVC015
  FM090000 20008KT 4SM -RA BR OVC005
  FM090700 26010KT P6SM OVC010


Raw METAR
KSTL 080551Z 10006KT 7SM -RA FEW008 OVC036 19/17 A3006 RMK AO2 RAB43 SLP172 P0000 60002 T01890167 10206 20189 402720189 58003
KSTL 080511Z 11006KT 7SM FEW008 SCT019 OVC036 19/17 A3007 RMK AO2
KSTL 080451Z 11006KT 6SM BR FEW008 BKN025 OVC036 19/17 A3008 RMK AO2 RAE13 SLP176 P0000 T01940172
KSTL 080439Z 11006KT 7SM FEW006 BKN017 OVC025 19/17 A3008 RMK AO2 RAE13 P0000
KSTL 080402Z 12004KT 5SM -RA BR SCT006 BKN013 OVC024 19/17 A3008 RMK AO2 P0000
KSTL 080351Z 00000KT 3SM -RA BR SCT006 BKN015 OVC023 19/17 A3008 RMK AO2 RAB0257 SLP178 P0002 T01940172
KSTL 080337Z 00000KT 3SM -RA BR FEW006 BKN017 OVC028 19/17 A3008 RMK AO2 RAB0257 P0002

METAR Board
Radar Display
Forecast Discussion

TAF Board Legend

Potential Impact
Threat None Slight Moderate High
Visibility (sm) ≥5.1 5.1>X≥3 3>X≥1 <1
Ceiling (100 ft) ≥30.1 30.1>X≥10 10>X≥5 <5
Wind Speed (kt) <10 10≤X<20 20≤X<30 ≥30
Wind Gust (kt) <15 15≤X<25 25≤X<35 ≥35
Weather No Wx Reported VCTS,-TS,-FZRA,SN TS,FZRA +TS,+FZRA,+SN